sensor_id;sensor_type;location;lat;lon;timestamp;pressure;altitude;pressure_sealevel;temperature;humidity
62655;BME280;48717;55.556;37.816;2023-05-16T00:00:18;100048.31;;;12.20;50.79
62655;BME280;48717;55.556;37.816;2023-05-16T00:02:45;100045.72;;;12.15;50.77
62655;BME280;48717;55.556;37.816;2023-05-16T00:28:37;100054.53;;;11.97;53.20
62655;BME280;48717;55.556;37.816;2023-05-16T00:31:04;100054.66;;;11.39;56.69
62655;BME280;48717;55.556;37.816;2023-05-16T00:33:32;100071.34;;;10.97;58.85
62655;BME280;48717;55.556;37.816;2023-05-16T00:35:59;100047.53;;;10.57;60.48
62655;BME280;48717;55.556;37.816;2023-05-16T00:38:26;100077.31;;;10.43;61.54
62655;BME280;48717;55.556;37.816;2023-05-16T00:40:54;100082.53;;;10.31;62.52
62655;BME280;48717;55.556;37.816;2023-05-16T00:43:21;100077.25;;;10.18;62.88
62655;BME280;48717;55.556;37.816;2023-05-16T00:45:49;100081.59;;;10.12;63.61
62655;BME280;48717;55.556;37.816;2023-05-16T00:48:17;100086.81;;;10.01;63.89
62655;BME280;48717;55.556;37.816;2023-05-16T00:50:44;100075.31;;;9.89;64.18
62655;BME280;48717;55.556;37.816;2023-05-16T00:53:12;100039.22;;;9.68;64.82
62655;BME280;48717;55.556;37.816;2023-05-16T00:55:39;100056.81;;;9.78;64.79
62655;BME280;48717;55.556;37.816;2023-05-16T00:58:07;100070.88;;;9.82;64.88
62655;BME280;48717;55.556;37.816;2023-05-16T01:00:34;100066.44;;;9.72;65.15
62655;BME280;48717;55.556;37.816;2023-05-16T01:03:04;100046.16;;;9.58;65.84
62655;BME280;48717;55.556;37.816;2023-05-16T01:05:32;100088.41;;;9.77;66.32
62655;BME280;48717;55.556;37.816;2023-05-16T01:07:59;100082.22;;;9.72;66.10
62655;BME280;48717;55.556;37.816;2023-05-16T01:10:38;100075.22;;;9.74;65.58
62655;BME280;48717;55.556;37.816;2023-05-16T01:13:17;100073.47;;;9.76;65.81
62655;BME280;48717;55.556;37.816;2023-05-16T01:16:04;100070.91;;;9.81;64.79
62655;BME280;48717;55.556;37.816;2023-05-16T01:18:51;100075.28;;;9.83;65.25
62655;BME280;48717;55.556;37.816;2023-05-16T01:24:13;100057.72;;;9.82;63.50
62655;BME280;48717;55.556;37.816;2023-05-16T01:26:45;100063.91;;;9.90;63.33
62655;BME280;48717;55.556;37.816;2023-05-16T01:29:12;100072.72;;;9.97;62.85
62655;BME280;48717;55.556;37.816;2023-05-16T01:31:41;100082.44;;;10.11;63.33
62655;BME280;48717;55.556;37.816;2023-05-16T01:34:08;100059.56;;;9.97;62.69
62655;BME280;48717;55.556;37.816;2023-05-16T01:39:44;100077.97;;;9.96;64.06
62655;BME280;48717;55.556;37.816;2023-05-16T01:42:14;100078.81;;;9.91;64.26
62655;BME280;48717;55.556;37.816;2023-05-16T01:44:49;100087.59;;;9.84;63.92
62655;BME280;48717;55.556;37.816;2023-05-16T01:47:23;100084.06;;;9.79;64.44
62655;BME280;48717;55.556;37.816;2023-05-16T01:49:57;100080.50;;;9.77;64.77
62655;BME280;48717;55.556;37.816;2023-05-16T01:52:42;100083.13;;;9.72;64.80
62655;BME280;48717;55.556;37.816;2023-05-16T01:55:21;100069.06;;;9.70;65.21
62655;BME280;48717;55.556;37.816;2023-05-16T01:57:50;100060.22;;;9.62;64.13
62655;BME280;48717;55.556;37.816;2023-05-16T02:00:19;100069.03;;;9.64;64.34
62655;BME280;48717;55.556;37.816;2023-05-16T02:02:46;100057.56;;;9.60;64.03
62655;BME280;48717;55.556;37.816;2023-05-16T02:05:16;100041.69;;;9.45;64.17
62655;BME280;48717;55.556;37.816;2023-05-16T02:07:43;100057.63;;;9.66;62.51
62655;BME280;48717;55.556;37.816;2023-05-16T02:10:11;100072.72;;;9.96;60.44
62655;BME280;48717;55.556;37.816;2023-05-16T02:12:39;100047.25;;;9.95;61.46
62655;BME280;48717;55.556;37.816;2023-05-16T02:15:07;100076.34;;;10.18;60.39
62655;BME280;48717;55.556;37.816;2023-05-16T02:17:35;100086.03;;;10.21;60.54
62655;BME280;48717;55.556;37.816;2023-05-16T02:20:03;100063.13;;;10.13;59.90
62655;BME280;48717;55.556;37.816;2023-05-16T02:22:33;100069.31;;;10.17;59.95
62655;BME280;48717;55.556;37.816;2023-05-16T02:25:01;100088.66;;;10.27;59.76
62655;BME280;48717;55.556;37.816;2023-05-16T02:27:30;100083.41;;;10.22;60.38
62655;BME280;48717;55.556;37.816;2023-05-16T02:29:57;100049.06;;;10.05;59.69
62655;BME280;48717;55.556;37.816;2023-05-16T02:32:24;100054.34;;;10.05;59.75
62655;BME280;48717;55.556;37.816;2023-05-16T02:34:52;100092.19;;;10.26;59.25
62655;BME280;48717;55.556;37.816;2023-05-16T02:37:19;100093.97;;;10.31;59.78
62655;BME280;48717;55.556;37.816;2023-05-16T02:39:48;100060.53;;;10.16;58.84
62655;BME280;48717;55.556;37.816;2023-05-16T02:42:15;100090.50;;;10.37;59.07
62655;BME280;48717;55.556;37.816;2023-05-16T02:44:43;100086.09;;;10.36;58.42
62655;BME280;48717;55.556;37.816;2023-05-16T02:47:10;100079.13;;;10.48;57.93
62655;BME280;48717;55.556;37.816;2023-05-16T02:49:38;100076.53;;;10.66;57.25
62655;BME280;48717;55.556;37.816;2023-05-16T02:52:05;100071.28;;;10.69;57.03
62655;BME280;48717;55.556;37.816;2023-05-16T02:54:34;100060.72;;;10.68;56.25
62655;BME280;48717;55.556;37.816;2023-05-16T02:57:01;100087.16;;;10.90;56.22
62655;BME280;48717;55.556;37.816;2023-05-16T02:59:29;100081.91;;;10.96;55.52
62655;BME280;48717;55.556;37.816;2023-05-16T03:01:56;100082.78;;;11.00;55.81
62655;BME280;48717;55.556;37.816;2023-05-16T03:04:25;100073.97;;;10.97;55.11
62655;BME280;48717;55.556;37.816;2023-05-16T03:06:53;100086.31;;;11.08;55.17
62655;BME280;48717;55.556;37.816;2023-05-16T03:09:20;100083.69;;;11.14;54.65
62655;BME280;48717;55.556;37.816;2023-05-16T03:11:47;100081.91;;;11.19;54.29
62655;BME280;48717;55.556;37.816;2023-05-16T03:14:14;100035.28;;;11.06;54.58
62655;BME280;48717;55.556;37.816;2023-05-16T03:16:45;100062.56;;;11.23;54.00
62655;BME280;48717;55.556;37.816;2023-05-16T03:19:12;100083.69;;;11.42;54.19
62655;BME280;48717;55.556;37.816;2023-05-16T03:21:40;100065.22;;;11.41;53.66
62655;BME280;48717;55.556;37.816;2023-05-16T03:24:07;100070.47;;;11.45;53.83
62655;BME280;48717;55.556;37.816;2023-05-16T03:26:34;100094.25;;;11.59;53.28
62655;BME280;48717;55.556;37.816;2023-05-16T03:29:01;100074.88;;;11.51;53.87
62655;BME280;48717;55.556;37.816;2023-05-16T03:31:29;100072.22;;;11.46;54.49
62655;BME280;48717;55.556;37.816;2023-05-16T03:33:57;100103.94;;;11.65;57.08
62655;BME280;48717;55.556;37.816;2023-05-16T03:36:26;100098.66;;;11.53;56.94
62655;BME280;48717;55.556;37.816;2023-05-16T03:38:53;100080.16;;;11.37;59.76
62655;BME280;48717;55.556;37.816;2023-05-16T03:41:21;100124.16;;;11.41;60.97
62655;BME280;48717;55.556;37.816;2023-05-16T03:43:48;100100.41;;;11.22;61.12
62655;BME280;48717;55.556;37.816;2023-05-16T03:46:15;100110.97;;;11.32;60.83
62655;BME280;48717;55.556;37.816;2023-05-16T03:48:42;100104.78;;;11.16;60.49
62655;BME280;48717;55.556;37.816;2023-05-16T03:51:09;100114.47;;;11.25;59.75
62655;BME280;48717;55.556;37.816;2023-05-16T03:53:36;100095.13;;;11.16;60.48
62655;BME280;48717;55.556;37.816;2023-05-16T03:56:04;100116.22;;;11.29;62.26
62655;BME280;48717;55.556;37.816;2023-05-16T03:58:31;100139.13;;;11.45;62.31
62655;BME280;48717;55.556;37.816;2023-05-16T04:00:58;100121.53;;;11.44;61.64
62655;BME280;48717;55.556;37.816;2023-05-16T04:03:25;100125.03;;;11.59;59.54
62655;BME280;48717;55.556;37.816;2023-05-16T04:05:54;100130.34;;;11.65;58.60
62655;BME280;48717;55.556;37.816;2023-05-16T04:08:22;100101.28;;;11.57;58.93
62655;BME280;48717;55.556;37.816;2023-05-16T04:10:49;100090.75;;;11.56;57.61
62655;BME280;48717;55.556;37.816;2023-05-16T04:13:16;100109.19;;;11.79;56.61
62655;BME280;48717;55.556;37.816;2023-05-16T04:15:44;100114.44;;;11.93;56.64
62655;BME280;48717;55.556;37.816;2023-05-16T04:18:11;100117.06;;;11.99;56.45
62655;BME280;48717;55.556;37.816;2023-05-16T04:20:41;100103.91;;;12.06;56.24
62655;BME280;48717;55.556;37.816;2023-05-16T04:23:08;100130.19;;;12.43;54.79
62655;BME280;48717;55.556;37.816;2023-05-16T04:25:39;100116.00;;;12.66;53.79
62655;BME280;48717;55.556;37.816;2023-05-16T04:28:07;100120.22;;;13.01;52.87
62655;BME280;48717;55.556;37.816;2023-05-16T04:30:34;100126.22;;;13.28;51.57
62655;BME280;48717;55.556;37.816;2023-05-16T04:33:01;100119.00;;;13.52;50.76
62655;BME280;48717;55.556;37.816;2023-05-16T04:35:28;100129.38;;;13.79;50.68
62655;BME280;48717;55.556;37.816;2023-05-16T04:37:55;100114.16;;;14.00;48.77
62655;BME280;48717;55.556;37.816;2023-05-16T04:40:23;100124.41;;;14.31;48.08
62655;BME280;48717;55.556;37.816;2023-05-16T04:42:51;100124.97;;;14.59;47.81
62655;BME280;48717;55.556;37.816;2023-05-16T04:45:20;100120.34;;;14.77;46.92
62655;BME280;48717;55.556;37.816;2023-05-16T04:47:47;100104.88;;;15.07;46.02
62655;BME280;48717;55.556;37.816;2023-05-16T04:50:15;100129.06;;;15.47;45.27
62655;BME280;48717;55.556;37.816;2023-05-16T04:52:43;100135.63;;;15.79;44.35
62655;BME280;48717;55.556;37.816;2023-05-16T04:55:10;100131.50;;;16.11;44.08
62655;BME280;48717;55.556;37.816;2023-05-16T04:57:38;100139.41;;;16.17;42.13
62655;BME280;48717;55.556;37.816;2023-05-16T05:00:06;100096.91;;;16.13;41.86
62655;BME280;48717;55.556;37.816;2023-05-16T05:02:38;100129.75;;;16.56;40.58
62655;BME280;48717;55.556;37.816;2023-05-16T05:05:05;100132.00;;;16.75;40.27
62655;BME280;48717;55.556;37.816;2023-05-16T05:07:33;100125.97;;;17.09;39.33
62655;BME280;48717;55.556;37.816;2023-05-16T05:10:00;100139.66;;;17.33;38.64
62655;BME280;48717;55.556;37.816;2023-05-16T05:12:29;100121.06;;;17.30;37.86
62655;BME280;48717;55.556;37.816;2023-05-16T05:14:56;100129.47;;;17.49;38.04
62655;BME280;48717;55.556;37.816;2023-05-16T05:17:24;100119.22;;;17.68;37.87
62655;BME280;48717;55.556;37.816;2023-05-16T05:19:51;100143.66;;;17.86;37.05
62655;BME280;48717;55.556;37.816;2023-05-16T05:22:18;100130.47;;;17.80;36.65
62655;BME280;48717;55.556;37.816;2023-05-16T05:24:45;100139.97;;;17.90;35.84
62655;BME280;48717;55.556;37.816;2023-05-16T05:27:12;100147.66;;;18.03;35.95
62655;BME280;48717;55.556;37.816;2023-05-16T05:29:39;100135.94;;;18.10;35.68
62655;BME280;48717;55.556;37.816;2023-05-16T05:32:06;100137.31;;;17.55;36.62
62655;BME280;48717;55.556;37.816;2023-05-16T05:34:34;100152.63;;;17.47;37.12
62655;BME280;48717;55.556;37.816;2023-05-16T05:37:01;100139.25;;;17.48;35.98
62655;BME280;48717;55.556;37.816;2023-05-16T05:39:28;100158.13;;;17.75;35.79
62655;BME280;48717;55.556;37.816;2023-05-16T05:41:55;100139.97;;;17.90;35.82
62655;BME280;48717;55.556;37.816;2023-05-16T05:44:23;100150.91;;;18.47;34.52
62655;BME280;48717;55.556;37.816;2023-05-16T05:46:50;100159.91;;;19.07;33.35
62655;BME280;48717;55.556;37.816;2023-05-16T05:49:17;100150.00;;;19.39;32.68
62655;BME280;48717;55.556;37.816;2023-05-16T05:51:44;100157.28;;;19.62;32.11
62655;BME280;48717;55.556;37.816;2023-05-16T05:54:12;100162.00;;;19.81;31.49
62655;BME280;48717;55.556;37.816;2023-05-16T05:56:39;100160.22;;;20.08;31.49
62655;BME280;48717;55.556;37.816;2023-05-16T05:59:06;100136.31;;;19.75;30.96
62655;BME280;48717;55.556;37.816;2023-05-16T06:01:34;100167.78;;;19.94;30.78
62655;BME280;48717;55.556;37.816;2023-05-16T06:04:01;100160.22;;;20.08;30.86
62655;BME280;48717;55.556;37.816;2023-05-16T06:06:29;100164.91;;;20.27;29.19
62655;BME280;48717;55.556;37.816;2023-05-16T06:08:57;100165.00;;;19.99;29.01
62655;BME280;48717;55.556;37.816;2023-05-16T06:11:24;100176.19;;;19.83;29.95
62655;BME280;48717;55.556;37.816;2023-05-16T06:13:51;100171.03;;;19.77;30.11
62655;BME280;48717;55.556;37.816;2023-05-16T06:16:18;100173.25;;;19.91;30.39
62655;BME280;48717;55.556;37.816;2023-05-16T06:18:49;100169.91;;;20.37;29.04
62655;BME280;48717;55.556;37.816;2023-05-16T06:21:17;100164.16;;;20.71;27.55
62655;BME280;48717;55.556;37.816;2023-05-16T06:23:44;100172.75;;;21.05;27.56
62655;BME280;48717;55.556;37.816;2023-05-16T06:26:11;100161.06;;;21.30;27.10
62655;BME280;48717;55.556;37.816;2023-05-16T06:28:38;100171.19;;;21.46;26.70
62655;BME280;48717;55.556;37.816;2023-05-16T06:31:05;100148.94;;;21.64;26.15
62655;BME280;48717;55.556;37.816;2023-05-16T06:33:32;100163.50;;;22.02;25.71
62655;BME280;48717;55.556;37.816;2023-05-16T06:35:59;100166.31;;;21.99;26.09
62655;BME280;48717;55.556;37.816;2023-05-16T06:38:27;100180.00;;;21.70;26.12
62655;BME280;48717;55.556;37.816;2023-05-16T06:40:54;100170.13;;;21.71;26.26
62655;BME280;48717;55.556;37.816;2023-05-16T06:43:21;100155.97;;;22.10;25.62
62655;BME280;48717;55.556;37.816;2023-05-16T06:45:48;100176.69;;;22.69;25.05
62655;BME280;48717;55.556;37.816;2023-05-16T06:48:17;100161.94;;;22.78;24.73
62655;BME280;48717;55.556;37.816;2023-05-16T06:50:48;100164.00;;;23.11;24.39
62655;BME280;48717;55.556;37.816;2023-05-16T06:53:15;100163.03;;;23.31;23.77
62655;BME280;48717;55.556;37.816;2023-05-16T06:55:42;100160.75;;;23.60;22.71
62655;BME280;48717;55.556;37.816;2023-05-16T06:58:10;100148.00;;;23.82;22.18
62655;BME280;48717;55.556;37.816;2023-05-16T07:00:37;100156.22;;;23.61;23.02
62655;BME280;48717;55.556;37.816;2023-05-16T07:03:05;100162.78;;;23.73;22.59
62655;BME280;48717;55.556;37.816;2023-05-16T07:05:32;100162.84;;;23.36;22.84
62655;BME280;48717;55.556;37.816;2023-05-16T07:07:59;100152.00;;;23.18;23.06
62655;BME280;48717;55.556;37.816;2023-05-16T07:10:27;100132.44;;;22.95;23.84
62655;BME280;48717;55.556;37.816;2023-05-16T07:12:54;100147.09;;;23.46;23.47
62655;BME280;48717;55.556;37.816;2023-05-16T07:15:22;100138.28;;;23.79;23.22
62655;BME280;48717;55.556;37.816;2023-05-16T07:17:49;100140.06;;;24.32;22.77
62655;BME280;48717;55.556;37.816;2023-05-16T07:20:16;100140.22;;;25.12;21.94
62655;BME280;48717;55.556;37.816;2023-05-16T07:22:44;100114.78;;;25.33;21.04
62655;BME280;48717;55.556;37.816;2023-05-16T07:25:11;100134.44;;;25.67;20.57
62655;BME280;48717;55.556;37.816;2023-05-16T07:27:41;100131.72;;;25.67;20.45
62655;BME280;48717;55.556;37.816;2023-05-16T07:30:11;100140.16;;;25.61;20.84
62655;BME280;48717;55.556;37.816;2023-05-16T07:32:39;100119.66;;;25.26;20.95
62655;BME280;48717;55.556;37.816;2023-05-16T07:35:07;100138.91;;;25.36;21.30
62655;BME280;48717;55.556;37.816;2023-05-16T07:37:35;100119.81;;;25.39;21.43
62655;BME280;48717;55.556;37.816;2023-05-16T07:40:02;100138.78;;;25.70;21.47
62655;BME280;48717;55.556;37.816;2023-05-16T07:42:31;100137.16;;;25.81;21.39
62655;BME280;48717;55.556;37.816;2023-05-16T07:44:59;100108.47;;;26.10;20.56
62655;BME280;48717;55.556;37.816;2023-05-16T07:47:26;100113.88;;;26.10;20.62
62655;BME280;48717;55.556;37.816;2023-05-16T07:49:53;100115.41;;;26.14;19.97
62655;BME280;48717;55.556;37.816;2023-05-16T07:52:20;100126.97;;;26.01;19.92
62655;BME280;48717;55.556;37.816;2023-05-16T07:54:48;100104.78;;;25.96;19.73
62655;BME280;48717;55.556;37.816;2023-05-16T07:57:15;100122.63;;;25.99;19.69
62655;BME280;48717;55.556;37.816;2023-05-16T07:59:43;100110.00;;;26.14;19.18
62655;BME280;48717;55.556;37.816;2023-05-16T08:02:11;100119.78;;;26.31;18.97
62655;BME280;48717;55.556;37.816;2023-05-16T08:04:38;100120.06;;;26.55;19.08
62655;BME280;48717;55.556;37.816;2023-05-16T08:07:05;100127.81;;;26.62;18.84
62655;BME280;48717;55.556;37.816;2023-05-16T08:09:33;100110.97;;;26.13;19.10
62655;BME280;48717;55.556;37.816;2023-05-16T08:12:00;100112.09;;;26.54;18.41
62655;BME280;48717;55.556;37.816;2023-05-16T08:14:30;100125.88;;;26.78;18.35
62655;BME280;48717;55.556;37.816;2023-05-16T08:16:58;100128.94;;;26.72;18.63
62655;BME280;48717;55.556;37.816;2023-05-16T08:19:26;100129.13;;;26.83;18.22
62655;BME280;48717;55.556;37.816;2023-05-16T08:21:55;100129.94;;;26.71;18.04
62655;BME280;48717;55.556;37.816;2023-05-16T08:24:22;100099.03;;;26.46;17.84
62655;BME280;48717;55.556;37.816;2023-05-16T08:26:49;100117.94;;;26.17;18.27
62655;BME280;48717;55.556;37.816;2023-05-16T08:29:17;100089.63;;;25.93;18.87
62655;BME280;48717;55.556;37.816;2023-05-16T08:31:44;100121.81;;;26.27;18.79
62655;BME280;48717;55.556;37.816;2023-05-16T08:34:11;100098.22;;;26.00;18.98
62655;BME280;48717;55.556;37.816;2023-05-16T08:36:38;100114.91;;;26.07;18.87
62655;BME280;48717;55.556;37.816;2023-05-16T08:39:06;100084.84;;;25.68;18.72
62655;BME280;48717;55.556;37.816;2023-05-16T08:41:33;100113.84;;;25.64;18.19
62655;BME280;48717;55.556;37.816;2023-05-16T08:44:00;100119.59;;;25.11;18.63
62655;BME280;48717;55.556;37.816;2023-05-16T08:46:28;100107.94;;;24.95;19.39
62655;BME280;48717;55.556;37.816;2023-05-16T08:48:58;100086.53;;;24.92;19.59
62655;BME280;48717;55.556;37.816;2023-05-16T08:51:27;100100.81;;;25.10;19.12
62655;BME280;48717;55.556;37.816;2023-05-16T08:54:14;100112.34;;;25.28;19.13
62655;BME280;48717;55.556;37.816;2023-05-16T08:56:44;100103.50;;;25.10;19.00
62655;BME280;48717;55.556;37.816;2023-05-16T08:59:11;100093.03;;;25.03;19.21
62655;BME280;48717;55.556;37.816;2023-05-16T09:01:39;100102.47;;;24.96;19.48
62655;BME280;48717;55.556;37.816;2023-05-16T09:04:08;100122.72;;;25.03;19.27
62655;BME280;48717;55.556;37.816;2023-05-16T09:06:35;100073.34;;;24.87;19.17
62655;BME280;48717;55.556;37.816;2023-05-16T09:09:03;100106.59;;;25.34;19.23
62655;BME280;48717;55.556;37.816;2023-05-16T09:11:33;100093.91;;;25.51;18.94
62655;BME280;48717;55.556;37.816;2023-05-16T09:14:03;100106.41;;;25.99;18.95
62655;BME280;48717;55.556;37.816;2023-05-16T09:16:31;100093.94;;;24.88;19.60
62655;BME280;48717;55.556;37.816;2023-05-16T09:18:59;100078.41;;;24.59;20.21
62655;BME280;48717;55.556;37.816;2023-05-16T09:21:29;100088.06;;;24.80;19.67
62655;BME280;48717;55.556;37.816;2023-05-16T09:24:08;100091.09;;;24.73;19.70
62655;BME280;48717;55.556;37.816;2023-05-16T09:26:37;100083.78;;;24.43;20.03
62655;BME280;48717;55.556;37.816;2023-05-16T09:29:11;100065.78;;;24.10;20.60
62655;BME280;48717;55.556;37.816;2023-05-16T09:31:39;100095.63;;;24.73;20.53
62655;BME280;48717;55.556;37.816;2023-05-16T09:34:07;100088.53;;;25.04;19.87
62655;BME280;48717;55.556;37.816;2023-05-16T09:36:35;100065.84;;;24.26;20.19
62655;BME280;48717;55.556;37.816;2023-05-16T09:39:02;100074.44;;;24.99;19.47
62655;BME280;48717;55.556;37.816;2023-05-16T09:41:33;100101.28;;;24.18;19.56
62655;BME280;48717;55.556;37.816;2023-05-16T09:44:04;100103.50;;;23.75;20.06
62655;BME280;48717;55.556;37.816;2023-05-16T09:46:36;100101.41;;;24.33;19.88
62655;BME280;48717;55.556;37.816;2023-05-16T09:49:04;100093.72;;;24.75;19.70
62655;BME280;48717;55.556;37.816;2023-05-16T09:51:32;100065.72;;;24.77;19.57
62655;BME280;48717;55.556;37.816;2023-05-16T09:54:00;100082.22;;;24.39;20.44
62655;BME280;48717;55.556;37.816;2023-05-16T09:56:27;100086.59;;;24.58;20.05
62655;BME280;48717;55.556;37.816;2023-05-16T09:58:56;100072.19;;;24.07;20.50
62655;BME280;48717;55.556;37.816;2023-05-16T10:01:23;100072.91;;;24.11;20.84
62655;BME280;48717;55.556;37.816;2023-05-16T10:03:51;100076.84;;;24.55;20.21
62655;BME280;48717;55.556;37.816;2023-05-16T10:06:18;100036.69;;;23.83;20.83
62655;BME280;48717;55.556;37.816;2023-05-16T10:08:46;100071.34;;;23.71;20.56
62655;BME280;48717;55.556;37.816;2023-05-16T10:11:15;100081.66;;;23.63;20.26
62655;BME280;48717;55.556;37.816;2023-05-16T10:13:44;100075.72;;;23.74;20.13
62655;BME280;48717;55.556;37.816;2023-05-16T10:16:17;100036.03;;;24.29;19.63
62655;BME280;48717;55.556;37.816;2023-05-16T10:18:44;100076.75;;;24.57;19.62
62655;BME280;48717;55.556;37.816;2023-05-16T10:21:14;100046.97;;;24.92;19.26
62655;BME280;48717;55.556;37.816;2023-05-16T10:23:46;100064.88;;;24.93;19.72
62655;BME280;48717;55.556;37.816;2023-05-16T10:26:15;100048.47;;;25.28;19.45
62655;BME280;48717;55.556;37.816;2023-05-16T10:28:44;100058.69;;;25.99;19.52
62655;BME280;48717;55.556;37.816;2023-05-16T10:31:11;100049.31;;;26.49;18.85
62655;BME280;48717;55.556;37.816;2023-05-16T10:33:40;100037.56;;;26.77;18.70
62655;BME280;48717;55.556;37.816;2023-05-16T10:36:08;100034.56;;;26.82;18.04
62655;BME280;48717;55.556;37.816;2023-05-16T10:38:37;100053.59;;;25.64;19.69
62655;BME280;48717;55.556;37.816;2023-05-16T10:41:05;100046.13;;;25.53;19.40
62655;BME280;48717;55.556;37.816;2023-05-16T10:43:33;100033.41;;;26.44;19.07
62655;BME280;48717;55.556;37.816;2023-05-16T10:46:06;100033.69;;;27.36;18.13
62655;BME280;48717;55.556;37.816;2023-05-16T10:48:36;100037.38;;;27.35;18.11
62655;BME280;48717;55.556;37.816;2023-05-16T10:51:34;100014.91;;;27.74;17.96
62655;BME280;48717;55.556;37.816;2023-05-16T10:54:10;100038.97;;;27.66;18.17
62655;BME280;48717;55.556;37.816;2023-05-16T10:56:39;99990.34;;;27.23;18.39
62655;BME280;48717;55.556;37.816;2023-05-16T10:59:24;100010.97;;;26.84;18.63
62655;BME280;48717;55.556;37.816;2023-05-16T11:01:54;100011.41;;;26.78;19.05
62655;BME280;48717;55.556;37.816;2023-05-16T11:04:22;100024.59;;;27.37;17.78
62655;BME280;48717;55.556;37.816;2023-05-16T11:06:51;100018.38;;;27.09;18.15
62655;BME280;48717;55.556;37.816;2023-05-16T11:09:21;99999.38;;;26.54;19.24
62655;BME280;48717;55.556;37.816;2023-05-16T11:12:02;100011.72;;;27.01;18.99
62655;BME280;48717;55.556;37.816;2023-05-16T11:17:15;100033.16;;;27.31;18.33
62655;BME280;48717;55.556;37.816;2023-05-16T11:24:59;100006.75;;;27.07;18.66
62655;BME280;48717;55.556;37.816;2023-05-16T11:27:32;99982.16;;;28.29;17.46
62655;BME280;48717;55.556;37.816;2023-05-16T11:30:13;100004.34;;;28.72;17.62
62655;BME280;48717;55.556;37.816;2023-05-16T11:32:43;100012.56;;;29.32;17.34
62655;BME280;48717;55.556;37.816;2023-05-16T11:35:12;100016.84;;;29.70;15.97
62655;BME280;48717;55.556;37.816;2023-05-16T11:37:41;100001.53;;;29.58;16.22
62655;BME280;48717;55.556;37.816;2023-05-16T11:40:10;100004.13;;;28.37;17.21
62655;BME280;48717;55.556;37.816;2023-05-16T11:42:43;100002.34;;;28.62;16.86
62655;BME280;48717;55.556;37.816;2023-05-16T11:45:11;99995.22;;;28.73;17.09
62655;BME280;48717;55.556;37.816;2023-05-16T11:47:41;100007.22;;;28.57;17.49
62655;BME280;48717;55.556;37.816;2023-05-16T11:50:12;99975.78;;;28.04;17.89
62655;BME280;48717;55.556;37.816;2023-05-16T11:52:48;99991.72;;;29.08;16.63
62655;BME280;48717;55.556;37.816;2023-05-16T11:55:21;100001.22;;;29.02;16.96
62655;BME280;48717;55.556;37.816;2023-05-16T11:58:05;99987.03;;;27.46;18.17
62655;BME280;48717;55.556;37.816;2023-05-16T12:00:33;100000.63;;;27.85;17.98
62655;BME280;48717;55.556;37.816;2023-05-16T12:03:01;99978.28;;;28.07;18.23
62655;BME280;48717;55.556;37.816;2023-05-16T12:05:31;99991.19;;;28.78;17.25
62655;BME280;48717;55.556;37.816;2023-05-16T12:08:00;99975.53;;;29.42;16.49
62655;BME280;48717;55.556;37.816;2023-05-16T12:10:30;99988.44;;;30.55;15.27
62655;BME280;48717;55.556;37.816;2023-05-16T12:12:59;99981.66;;;30.49;15.16
62655;BME280;48717;55.556;37.816;2023-05-16T12:15:27;99990.19;;;29.64;15.93
62655;BME280;48717;55.556;37.816;2023-05-16T12:17:55;99990.47;;;30.07;16.18
62655;BME280;48717;55.556;37.816;2023-05-16T12:20:23;99986.25;;;30.03;15.66
62655;BME280;48717;55.556;37.816;2023-05-16T12:22:52;99982.56;;;30.38;15.83
62655;BME280;48717;55.556;37.816;2023-05-16T12:25:33;99963.41;;;31.38;14.64
62655;BME280;48717;55.556;37.816;2023-05-16T12:28:03;99952.88;;;32.17;14.13
62655;BME280;48717;55.556;37.816;2023-05-16T12:30:33;99978.31;;;32.88;13.96
62655;BME280;48717;55.556;37.816;2023-05-16T12:33:02;99986.50;;;32.27;14.21
62655;BME280;48717;55.556;37.816;2023-05-16T12:35:36;99973.47;;;31.47;14.71
62655;BME280;48717;55.556;37.816;2023-05-16T12:38:04;99988.94;;;30.48;15.38
62655;BME280;48717;55.556;37.816;2023-05-16T12:40:38;99984.94;;;29.50;15.83
62655;BME280;48717;55.556;37.816;2023-05-16T12:43:31;99978.63;;;29.02;16.63
62655;BME280;48717;55.556;37.816;2023-05-16T12:45:59;99976.16;;;29.35;16.01
62655;BME280;48717;55.556;37.816;2023-05-16T12:48:33;99972.28;;;28.65;17.02
62655;BME280;48717;55.556;37.816;2023-05-16T12:51:15;99966.00;;;29.84;16.22
62655;BME280;48717;55.556;37.816;2023-05-16T12:53:45;99969.56;;;30.30;16.30
62655;BME280;48717;55.556;37.816;2023-05-16T12:56:40;99953.66;;;30.03;16.13
62655;BME280;48717;55.556;37.816;2023-05-16T12:59:07;99965.81;;;30.54;16.18
62655;BME280;48717;55.556;37.816;2023-05-16T13:01:35;99942.66;;;30.16;15.81
62655;BME280;48717;55.556;37.816;2023-05-16T13:04:03;99929.09;;;28.87;17.36
62655;BME280;48717;55.556;37.816;2023-05-16T13:06:31;99952.31;;;28.66;17.39
62655;BME280;48717;55.556;37.816;2023-05-16T13:09:18;99949.50;;;28.55;17.88
62655;BME280;48717;55.556;37.816;2023-05-16T13:11:46;99955.16;;;28.27;18.28
62655;BME280;48717;55.556;37.816;2023-05-16T13:14:13;99958.38;;;28.95;17.47
62655;BME280;48717;55.556;37.816;2023-05-16T13:16:40;99957.28;;;29.44;16.69
62655;BME280;48717;55.556;37.816;2023-05-16T13:19:07;99947.91;;;29.49;16.78
62655;BME280;48717;55.556;37.816;2023-05-16T13:21:35;99924.19;;;29.39;17.01
62655;BME280;48717;55.556;37.816;2023-05-16T13:24:03;99957.31;;;30.36;16.19
62655;BME280;48717;55.556;37.816;2023-05-16T13:26:30;99965.94;;;30.64;15.97
62655;BME280;48717;55.556;37.816;2023-05-16T13:28:57;99962.09;;;30.55;15.99